Latest Weather Observations for Parkes Airport

IDN60801

Issued at 9:22 am EST Wednesday 18 September 2019 (issued every 10 minutes, with the page automatically refreshed every 10 minutes)

About weather observations | Map of weather stations | Latest weather observations for NSW | Other Formats
Station Details ID: 065068 Name: PARKES AIRPORT AWS Lat: -33.13 Lon: 148.24 Height: 323.3 m
Data from the previous 72 hours. | See also: Recent months at Parkes Airport
Date/Time
EST
Temp
°C
App
Temp
°C
Dew
Point
°C
Rel
Hum
%
Delta-T
°C
Wind Press
QNH
hPa
Press
MSL
hPa
Rain since
9am
mm
Dir  Spd
km/h
Gust
km/h
Spd
kts
Gust
kts
18/09:00am 14.2 9.1 6.1 58 3.9 SE 22 32 12 17 1025.6 1025.6 0.4
18/08:30am 13.3 7.3 5.5 59 3.7 SE 26 39 14 21 1025.3 1025.3 0.4
18/08:00am 12.3 8.4 5.5 63 3.2 S 15 22 8 12 1025.6 1025.6 0.4
18/07:30am 11.2 6.9 5.1 66 2.8 S 17 28 9 15 1025.4 1025.4 0.4
18/07:00am 10.5 7.5 4.2 65 2.8 S 9 15 5 8 1025.1 1025.1 0.4
18/06:30am 9.7 5.2 4.1 68 2.5 S 17 24 9 13 1024.9 1024.9 0.4
18/06:00am 8.9 4.8 4.1 72 2.1 S 15 22 8 12 1024.9 1024.9 0.4
18/05:30am 9.4 5.7 4.4 71 2.3 SSE 13 22 7 12 1024.5 1024.4 0.4
18/05:00am 7.7 4.7 3.9 77 1.7 SSW 9 15 5 8 1024.4 1024.3 0.4
18/04:30am 7.8 3.3 4.0 77 1.7 SSE 17 22 9 12 1024.1 1024.0 0.4
18/04:00am 7.8 3.7 4.6 80 1.4 S 15 19 8 10 1024.0 1023.9 0.4
18/03:30am 7.8 4.1 4.7 81 1.4 S 13 17 7 9 1023.9 1023.8 0.4
18/03:00am 7.0 3.1 5.2 88 0.8 S 15 17 8 9 1024.0 1023.9 0.4
18/02:30am 7.0 3.1 5.2 88 0.8 SW 15 17 8 9 1024.2 1024.1 0.4
18/02:00am 6.8 2.8 4.8 87 0.9 SSW 15 17 8 9 1024.2 1024.1 0.4
18/01:30am 7.9 4.4 5.5 85 1.1 S 13 15 7 8 1024.4 1024.3 0.4
18/01:00am 7.7 3.8 5.3 85 1.1 SSW 15 17 8 9 1024.3 1024.2 0.4
18/12:30am 8.2 3.6 5.8 85 1.1 S 19 20 10 11 1024.3 1024.2 0.4
18/12:00am 9.0 4.3 6.1 82 1.3 S 20 24 11 13 1024.3 1024.2 0.4
 
Date/Time
EST
Temp
°C
App
Temp
°C
Dew
Point
°C
Rel
Hum
%
Delta-T
°C
Wind Press
QNH
hPa
Press
MSL
hPa
Rain since
9am
mm
Dir  Spd
km/h
Gust
km/h
Spd
kts
Gust
kts
17/11:30pm 8.8 4.3 6.3 84 1.2 S 19 22 10 12 1024.5 1024.4 0.4
17/11:00pm 9.0 4.4 6.3 83 1.3 S 20 26 11 14 1024.4 1024.3 0.4
17/10:30pm 9.2 4.2 6.5 83 1.3 S 22 28 12 15 1024.4 1024.3 0.4
17/10:00pm 9.0 4.7 6.8 86 1.0 S 19 24 10 13 1024.2 1024.1 0.4
17/09:30pm 8.8 5.6 6.8 87 0.9 SSW 13 15 7 8 1024.3 1024.2 0.4
17/09:00pm 8.3 5.7 6.3 87 0.9 S 9 13 5 7 1024.1 1024.0 0.4
17/08:30pm 8.5 5.6 6.3 86 1.0 S 11 11 6 6 1024.0 1023.9 0.4
17/08:00pm 9.3 6.1 6.7 84 1.2 S 13 15 7 8 1023.6 1023.6 0.4
17/07:30pm 10.2 6.6 6.7 79 1.7 SE 15 17 8 9 1023.1 1023.1 0.4
17/07:00pm 11.3 7.2 6.4 72 2.3 SE 17 24 9 13 1022.7 1022.7 0.4
17/06:30pm 12.1 8.0 6.4 68 2.7 ESE 17 24 9 13 1022.2 1022.2 0.4
17/06:00pm 12.5 8.5 6.5 67 2.9 SE 17 22 9 12 1021.8 1021.7 0.4
17/05:30pm 12.9 7.2 6.5 65 3.1 SE 26 33 14 18 1021.6 1021.5 0.4
17/05:00pm 13.2 8.4 7.2 67 3.0 SE 22 32 12 17 1021.2 1021.1 0.4
17/04:30pm 13.4 8.2 7.4 67 3.0 SE 24 32 13 17 1020.8 1020.7 0.4
17/04:00pm 13.7 8.7 7.9 68 2.9 SE 24 30 13 16 1020.0 1020.0 0.4
17/03:30pm 13.9 9.8 8.5 70 2.8 SE 20 33 11 18 1019.5 1019.5 0.4
17/03:00pm 14.0 9.9 8.6 70 2.8 ESE 20 28 11 15 1019.3 1019.2 0.2
17/02:30pm 14.1 9.0 9.1 72 2.6 ESE 26 33 14 18 1019.1 1019.0 0.2
17/02:00pm 13.8 9.0 8.8 72 2.6 SE 24 32 13 17 1018.9 1018.8 0.2
17/01:30pm 13.2 8.5 9.1 76 2.1 SE 24 32 13 17 1018.8 1018.7 0.2
17/01:00pm 12.1 8.5 10.0 87 1.1 SSE 19 26 10 14 1018.7 1018.6 0.2
17/12:52pm 12.1 8.4 10.3 89 0.9 SSE 20 28 11 15 1018.7 1018.6 0.2
17/12:30pm 12.1 9.4 10.5 90 0.8 SSE 15 20 8 11 1018.6 1018.5 0.2
17/12:00pm 11.3 8.6 10.5 95 0.4 S 15 20 8 11 1018.7 1018.6 0.2
17/11:36am 10.7 7.9 10.1 96 0.3 SSE 15 20 8 11 1018.7 1018.6 0.2
17/11:30am 10.5 7.3 9.9 96 0.3 SSE 17 20 9 11 1018.7 1018.6 0.2
17/11:05am 10.0 6.7 9.4 96 0.3 SSE 17 20 9 11 1018.6 1018.5 0.2
17/11:00am 9.9 6.5 9.1 95 0.4 SSE 17 20 9 11 1018.6 1018.5 0.2
17/10:30am 9.9 6.9 9.3 96 0.3 SSE 15 20 8 11 1018.5 1018.4 0.2
17/10:00am 9.2 6.0 8.6 96 0.3 S 15 19 8 10 1018.6 1018.5 0.2
17/09:30am 9.5 7.6 9.2 98 0.2 SW 9 11 5 6 1018.5 1018.4 0.0
17/09:18am 9.4 7.9 9.3 99 0.1 SW 7 11 4 6 1018.5 1018.4 0.0
17/09:08am 9.3 7.8 9.2 99 0.1 SSW 7 9 4 5 1018.5 1018.4 0.0
17/09:00am 9.3 7.4 9.2 99 0.1 SW 9 11 5 6 1018.3 1018.2 6.0
17/08:58am 9.1 7.2 9.0 99 0.0 SW 9 11 5 6 1018.3 1018.2 6.0
17/08:35am 8.8 6.8 8.7 99 0.0 SW 9 11 5 6 1018.3 1018.2 6.0
17/08:30am 8.7 6.7 8.6 99 0.0 SW 9 11 5 6 1018.2 1018.1 6.0
17/08:00am 8.3 5.8 8.2 99 0.0 SW 11 17 6 9 1018.4 1018.3 5.8
17/07:30am 8.3 4.7 8.2 99 0.0 SW 17 22 9 12 1017.9 1017.8 5.6
17/07:00am 8.3 5.0 8.2 99 0.0 SW 15 20 8 11 1017.8 1017.7 5.6
17/06:40am 8.4 4.2 8.3 99 0.0 SW 20 28 11 15 1017.7 1017.6 5.6
17/06:30am 8.3 3.3 8.2 99 0.0 SW 24 28 13 15 1017.6 1017.5 5.6
17/06:00am 8.7 3.6 7.8 94 0.4 WSW 24 32 13 17 1016.6 1016.5 5.6
17/05:56am 9.4 4.9 8.5 94 0.4 WSW 22 30 12 16 1016.8 1016.8 5.6
17/05:30am 11.1 7.8 9.7 91 0.7 NNE 17 24 9 13 1016.3 1016.2 5.6
17/05:00am 11.2 8.2 10.7 97 0.3 NE 17 22 9 12 1016.9 1016.9 4.4
17/04:30am 10.6 8.6 10.1 97 0.3 NNE 11 15 6 8 1017.5 1017.4 3.6
17/04:00am 11.1 10.9 10.3 95 0.4 WNW 2 13 1 7 1018.0 1017.9 2.8
17/03:30am 11.3 10.1 10.2 93 0.6 SW 7 11 4 6 1017.6 1017.5 2.0
17/03:00am 11.6 10.8 9.7 88 1.0 ESE 4 11 2 6 1017.3 1017.2 1.2
17/02:30am 11.8 8.5 9.7 87 1.1 E 17 26 9 14 1016.8 1016.8 1.0
17/02:00am 11.4 7.6 9.7 89 0.9 E 20 24 11 13 1016.9 1016.9 0.8
17/01:30am 11.2 8.9 8.9 86 1.2 SSW 11 13 6 7 1018.6 1018.5 0.4
17/01:00am 12.3 8.9 7.6 73 2.3 SW 15 22 8 12 1019.3 1019.2 0.0
17/12:30am 13.2 8.6 6.3 63 3.3 SW 20 26 11 14 1019.2 1019.1 0.0
17/12:00am 13.7 8.6 5.8 59 3.8 SW 22 28 12 15 1019.1 1019.0 0.0
 
Date/Time
EST
Temp
°C
App
Temp
°C
Dew
Point
°C
Rel
Hum
%
Delta-T
°C
Wind Press
QNH
hPa
Press
MSL
hPa
Rain since
9am
mm
Dir  Spd
km/h
Gust
km/h
Spd
kts
Gust
kts
16/11:30pm 14.1 9.5 5.7 57 4.1 SSW 19 26 10 14 1018.6 1018.5 0.0
16/11:00pm 14.4 9.8 5.7 56 4.2 SSW 19 24 10 13 1018.6 1018.5 0.0
16/10:30pm 14.7 10.1 5.8 55 4.3 S 19 30 10 16 1018.8 1018.7 0.0
16/10:00pm 15.1 8.0 5.6 53 4.6 SSW 32 43 17 23 1019.3 1019.2 0.0
16/09:30pm 15.8 8.5 5.4 50 5.0 SSW 33 43 18 23 1019.6 1019.6 0.0
16/09:00pm 16.5 10.2 5.8 49 5.2 SSW 28 35 15 19 1018.7 1018.6 0.0
16/08:30pm 17.2 11.4 6.4 49 5.4 SSW 26 37 14 20 1018.7 1018.6 0.0
16/08:00pm 18.0 11.1 7.4 50 5.4 SSW 33 41 18 22 1018.3 1018.2 0.0
16/07:30pm 18.6 12.6 7.1 47 5.9 SW 28 39 15 21 1018.2 1018.1 0.0
16/07:00pm 19.1 15.8 6.6 44 6.3 SSW 13 20 7 11 1017.1 1017.1 0.0
16/06:30pm 19.5 16.6 6.3 42 6.7 ESE 11 15 6 8 1016.1 1016.0 0.0
16/06:00pm 20.0 15.6 6.4 41 6.9 S 19 26 10 14 1016.2 1016.1 0.0
16/05:30pm 21.3 15.4 5.6 36 7.9 S 26 35 14 19 1016.1 1016.0 0.0
16/05:00pm 21.7 14.5 5.2 34 8.3 SSW 32 44 17 24 1015.7 1015.6 0.0
16/04:30pm 22.9 15.4 3.4 28 9.6 SSW 32 39 17 21 1015.1 1015.0 0.0
16/04:00pm 24.1 15.3 3.4 26 10.2 SSW 39 48 21 26 1014.7 1014.6 0.0
16/03:30pm 25.7 16.2 1.8 21 11.6 SSW 41 54 22 29 1014.5 1014.4 0.0
16/03:22pm 26.0 16.3 0.6 19 12.1 SW 41 56 22 30 1014.4 1014.3 0.0
16/03:09pm 27.5 19.3 -8.2 9 14.7 WSW 28 48 15 26 1014.2 1014.0 0.0
16/03:00pm 27.5 19.9 -9.7 8 14.9 WSW 24 35 13 19 1014.1 1013.9 0.0
16/02:30pm 27.8 18.6 -11.1 7 15.2 NW 32 44 17 24 1014.1 1013.9 0.0
16/02:03pm 29.5 21.0 -11.8 6 16.2 WNW 28 48 15 26 1014.3 1014.2 0.0
16/02:00pm 29.4 21.8 -9.9 7 16.0 WNW 24 35 13 19 1014.3 1014.2 0.0
16/01:30pm 29.3 21.7 -10.0 7 15.9 WNW 24 39 13 21 1014.7 1014.6 0.0
16/01:00pm 28.0 20.6 -12.9 6 15.5 NW 22 33 12 18 1015.2 1015.1 0.0
16/12:30pm 27.4 18.9 -11.4 7 15.0 NNW 28 37 15 20 1015.9 1015.8 0.0
16/12:00pm 27.2 18.0 -11.5 7 14.9 NW 32 43 17 23 1016.4 1016.3 0.0
16/11:30am 27.1 19.0 -11.6 7 14.9 NNW 26 35 14 19 1016.8 1016.8 0.0
16/11:00am 26.4 18.4 -10.5 8 14.4 NNW 26 35 14 19 1017.3 1017.2 0.0
16/10:30am 24.1 17.2 -10.7 9 13.2 N 20 30 11 16 1017.6 1017.5 0.0
16/10:00am 22.6 14.9 -11.8 9 12.6 N 24 33 13 18 1018.0 1017.9 0.0
16/09:30am 23.1 16.0 -12.9 8 13.0 N 20 28 11 15 1018.1 1018.0 0.0
16/09:00am 21.8 14.8 -12.4 9 12.2 N 20 30 11 16 1018.1 1018.0 0.0
16/08:30am 20.5 13.5 -12.1 10 11.6 N 20 30 11 16 1018.4 1018.3 0.0
16/08:00am 19.4 12.4 -11.8 11 11.0 N 20 32 11 17 1018.1 1018.0 0.0
16/07:30am 17.0 11.1 -9.8 15 9.6 NNE 15 20 8 11 1017.9 1017.8 0.0
16/07:23am 16.0 10.2 -9.0 17 9.0 NNE 15 20 8 11 1017.8 1017.7 0.0
16/07:00am 11.0 5.3 -7.7 26 6.5 NNE 15 19 8 10 1017.8 1017.7 0.0
16/06:30am 10.5 4.6 -9.7 23 6.6 NE 15 15 8 8 1017.8 1017.7 0.0
16/06:00am 9.3 4.1 -10.7 23 6.3 NE 11 13 6 7 1018.1 1018.0 0.0
16/05:30am 10.1 4.9 -10.6 22 6.6 NE 11 13 6 7 1018.0 1017.9 0.0
16/05:00am 11.2 8.1 -10.9 20 7.1 CALM 0 0 0 0 1018.2 1018.1 0.0
16/04:30am 10.4 5.2 -10.4 22 6.7 NNE 11 13 6 7 1017.9 1017.8 0.0
16/04:00am 9.5 4.8 -9.5 25 6.2 ENE 9 13 5 7 1018.1 1018.0 0.0
16/03:30am 9.2 4.6 -8.3 28 5.8 NE 9 9 5 5 1018.3 1018.2 0.0
16/03:00am 9.1 4.5 -8.0 29 5.7 NE 9 11 5 6 1018.6 1018.5 0.0
16/02:30am 9.5 5.2 -8.5 27 6.0 NE 7 9 4 5 1018.8 1018.7 0.0
16/02:00am 8.5 3.9 -8.5 29 5.6 ENE 9 11 5 6 1019.0 1018.9 0.0
16/01:30am 7.8 3.1 -9.1 29 5.4 ENE 9 11 5 6 1019.4 1019.3 0.0
16/01:00am 9.7 5.0 -8.8 26 6.1 E 9 11 5 6 1019.6 1019.6 0.0
16/12:30am 9.8 4.8 -8.3 27 6.1 E 11 13 6 7 1019.9 1019.9 0.0
16/12:00am 8.8 3.3 -9.1 27 5.8 ENE 13 13 7 7 1020.0 1020.0 0.0
 
Date/Time
EST
Temp
°C
App
Temp
°C
Dew
Point
°C
Rel
Hum
%
Delta-T
°C
Wind Press
QNH
hPa
Press
MSL
hPa
Rain since
9am
mm
Dir  Spd
km/h
Gust
km/h
Spd
kts
Gust
kts
15/11:30pm 8.8 3.0 -8.7 28 5.7 ENE 15 15 8 8 1020.1 1020.1 0.0
15/11:00pm 7.3 1.9 -8.7 31 5.1 ENE 13 13 7 7 1020.3 1020.3 0.0
15/10:30pm 9.2 4.5 -9.3 26 6.0 ENE 9 11 5 6 1020.7 1020.6 0.0
15/10:00pm 11.0 5.9 -9.3 23 6.7 ENE 11 13 6 7 1020.7 1020.6 0.0
15/09:30pm 11.3 6.2 -9.6 22 7.0 ENE 11 11 6 6 1020.8 1020.7 0.0
15/09:00pm 10.6 5.9 -8.6 25 6.5 ENE 9 9 5 5 1021.0 1020.9 0.0
15/08:30pm 10.4 5.3 -8.8 25 6.4 ENE 11 13 6 7 1020.9 1020.8 0.0
15/08:00pm 12.0 6.9 -9.0 22 7.1 E 11 13 6 7 1020.9 1020.8 0.0
15/07:30pm 14.4 9.7 -9.6 18 8.3 ENE 9 11 5 6 1020.8 1020.7 0.0
15/07:00pm 16.5 12.2 -9.4 16 9.2 NNE 7 7 4 4 1020.8 1020.7 0.0
15/06:30pm 18.0 13.6 -9.9 14 10.0 N 7 9 4 5 1020.4 1020.4 0.0
15/06:00pm 20.8 15.9 -11.9 10 11.6 NNW 9 11 5 6 1020.4 1020.4 0.0
15/05:30pm 22.9 17.8 -9.1 11 12.4 NW 11 13 6 7 1020.3 1020.3 0.0
15/05:00pm 25.6 20.7 -12.7 7 14.2 WNW 9 19 5 10 1020.1 1020.1 0.0
15/04:30pm 26.4 20.6 -14.0 6 14.8 WNW 13 19 7 10 1020.1 1020.1 0.0
15/04:00pm 26.6 19.9 -16.1 5 15.1 NW 17 24 9 13 1020.1 1020.1 0.0
15/03:30pm 26.9 21.0 -15.9 5 15.2 WNW 13 20 7 11 1020.1 1020.1 0.0
15/03:00pm 26.8 21.8 -13.7 6 14.9 W 9 20 5 11 1020.6 1020.5 0.0
15/02:30pm 26.8 21.3 -15.9 5 15.2 WNW 11 19 6 10 1020.9 1020.8 0.0
15/02:00pm 26.2 20.7 -16.4 5 14.9 W 11 20 6 11 1021.2 1021.1 0.0
15/01:30pm 26.5 21.5 -13.9 6 14.8 NW 9 17 5 9 1021.6 1021.5 0.0
15/01:00pm 25.6 20.5 -14.6 6 14.4 W 9 13 5 7 1021.9 1021.8 0.0
15/12:30pm 25.7 19.7 -19.3 4 14.9 WSW 13 26 7 14 1022.5 1022.5 0.0
15/12:00pm 24.6 18.4 -15.3 6 13.9 W 15 22 8 12 1023.0 1023.0 0.0
15/11:30am 24.5 18.7 -13.5 7 13.8 W 13 20 7 11 1023.3 1023.3 0.0
15/11:00am 23.7 19.1 -12.5 8 13.2 WNW 7 13 4 7 1023.6 1023.6 0.0
15/10:30am 22.4 18.7 -13.4 8 12.7 SW 2 9 1 5 1023.9 1023.8 0.0
15/10:00am 21.4 17.3 -9.1 12 11.5 SSW 6 9 3 5 1024.3 1024.2 0.0
15/09:30am 20.3 17.4 -4.0 19 10.1 NE 2 9 1 5 1024.8 1024.8 0.0

Other formats

Comma delimited format used in spreadsheet applications
http://www.bom.gov.au/fwo/IDN60801/IDN60801.95717.axf

JavaScript Object Notation format (JSON) in row-major order
http://www.bom.gov.au/fwo/IDN60801/IDN60801.95717.json

Data quality

Most of these data are generated automatically and are frequently updated. Quality checks on data are not normally performed. It is possible for incorrect values to appear. Refer to information at About Latest Weather Observations and please check the disclaimer before using these data.